Time;durP1;ratioP1;P1;durP2;ratioP2;P2;SDS_P1;SDS_P2;PMS_P1;PMS_P2;Temp;Humidity;BMP_temperature;BMP_pressure;BME280_temperature;BME280_humidity;BME280_pressure;Samples;Min_cycle;Max_cycle;Signal;HPM_P1;HPM_P2
2020/12/24 00:00:45;;;;;;;4.38;1.00;;;;;;;10.98;46.51;100343.44;5071406;28;20064;-68
2020/12/24 00:03:13;;;;;;;2.83;0.85;;;;;;;10.98;46.33;100334.34;5065671;28;20048;-68
2020/12/24 00:05:40;;;;;;;3.03;0.98;;;;;;;10.95;46.28;100327.28;5070927;28;20040;-68
2020/12/24 00:08:08;;;;;;;3.30;0.98;;;;;;;10.96;46.39;100328.16;5069453;28;20045;-68
2020/12/24 00:10:37;;;;;;;3.53;0.93;;;;;;;10.95;46.42;100319.09;5069825;28;20033;-68
2020/12/24 00:13:04;;;;;;;4.68;1.00;;;;;;;10.92;46.03;100322.13;5070320;28;20068;-68
2020/12/24 00:15:31;;;;;;;5.03;1.20;;;;;;;10.91;46.05;100323.16;5070731;28;20064;-68
2020/12/24 00:18:15;;;;;;;4.18;1.20;;;;;;;10.90;46.07;100319.53;5065071;28;20437;-68
2020/12/24 00:20:43;;;;;;;2.47;0.93;;;;;;;10.89;46.33;100327.91;5068734;28;20086;-67
2020/12/24 00:23:10;;;;;;;3.80;1.10;;;;;;;10.89;46.13;100322.44;5070637;28;20044;-68
2020/12/24 00:25:39;;;;;;;3.95;1.10;;;;;;;10.88;46.22;100318.81;5070694;28;20051;-68
2020/12/24 00:28:07;;;;;;;3.90;1.40;;;;;;;10.87;46.39;100322.56;5062730;28;20077;-68
2020/12/24 00:30:35;;;;;;;3.38;1.10;;;;;;;10.85;46.00;100310.94;5064250;28;20037;-68
2020/12/24 00:33:02;;;;;;;4.55;1.35;;;;;;;10.84;46.17;100311.94;5070074;28;20106;-68
2020/12/24 00:35:30;;;;;;;3.42;1.10;;;;;;;10.85;46.01;100312.81;5095383;28;20045;-67
2020/12/24 00:37:57;;;;;;;2.78;0.95;;;;;;;10.82;45.86;100307.56;5069521;28;20147;-68
2020/12/24 00:40:24;;;;;;;2.72;0.88;;;;;;;10.81;45.87;100306.72;5070793;28;20067;-67
2020/12/24 00:42:52;;;;;;;3.05;1.20;;;;;;;10.82;46.37;100302.09;5070357;28;20050;-67
2020/12/24 00:45:21;;;;;;;2.72;1.00;;;;;;;10.80;46.17;100304.13;5068569;28;20040;-68
2020/12/24 00:47:48;;;;;;;2.88;0.95;;;;;;;10.79;46.38;100300.53;5065339;28;20056;-68
2020/12/24 00:50:15;;;;;;;3.65;1.10;;;;;;;10.80;45.88;100298.66;5070850;28;20086;-68
2020/12/24 00:52:43;;;;;;;3.72;1.08;;;;;;;10.78;46.10;100293.31;5074453;28;20041;-68
2020/12/24 00:55:10;;;;;;;2.70;0.98;;;;;;;10.78;46.15;100295.22;5068501;28;20479;-68
2020/12/24 00:57:38;;;;;;;4.40;1.08;;;;;;;10.77;45.88;100298.97;5087053;28;20041;-68
2020/12/24 01:00:08;;;;;;;3.03;1.20;;;;;;;10.77;45.56;100298.97;5067509;28;20517;-68
2020/12/24 01:02:36;;;;;;;6.45;1.70;;;;;;;10.74;45.73;100291.91;5072489;28;20462;-68
2020/12/24 01:05:05;;;;;;;6.15;1.35;;;;;;;10.73;45.84;100292.91;5074836;28;20055;-68
2020/12/24 01:07:33;;;;;;;5.80;1.30;;;;;;;10.71;45.58;100283.13;5073251;28;20119;-68
2020/12/24 01:10:01;;;;;;;3.53;1.00;;;;;;;10.70;45.73;100284.97;5073349;28;20048;-68
2020/12/24 01:12:28;;;;;;;4.20;1.00;;;;;;;10.69;45.84;100286.03;5073238;28;20491;-68
2020/12/24 01:14:55;;;;;;;4.80;1.20;;;;;;;10.67;45.69;100284.44;5074219;28;20051;-68
2020/12/24 01:17:23;;;;;;;4.28;1.17;;;;;;;10.67;45.68;100285.31;5072819;28;20044;-68
2020/12/24 01:19:51;;;;;;;3.33;0.95;;;;;;;10.64;45.80;100274.63;5073794;28;20131;-68
2020/12/24 01:22:18;;;;;;;3.45;1.35;;;;;;;10.64;45.46;100276.50;5073465;28;20036;-68
2020/12/24 01:24:46;;;;;;;3.55;0.98;;;;;;;10.63;45.72;100275.66;5073603;28;20090;-68
2020/12/24 01:27:13;;;;;;;4.78;1.80;;;;;;;10.62;45.72;100276.66;5069425;28;20044;-68
2020/12/24 01:29:40;;;;;;;4.43;1.30;;;;;;;10.62;45.75;100273.09;5065501;28;20556;-68
2020/12/24 01:32:08;;;;;;;4.47;1.02;;;;;;;10.61;45.77;100266.75;5073406;28;20380;-68
2020/12/24 01:34:36;;;;;;;6.03;1.10;;;;;;;10.61;45.27;100277.69;5073500;28;20502;-68
2020/12/24 01:37:03;;;;;;;3.50;1.13;;;;;;;10.60;45.48;100266.88;5071031;28;20041;-68
2020/12/24 01:39:31;;;;;;;4.10;1.30;;;;;;;10.60;45.29;100277.84;5065779;28;20061;-67
2020/12/24 01:41:58;;;;;;;5.50;1.48;;;;;;;10.58;45.46;100271.63;5073384;28;20043;-67
2020/12/24 01:44:25;;;;;;;3.92;1.00;;;;;;;10.57;45.44;100267.19;5073807;28;20495;-67
2020/12/24 01:46:53;;;;;;;5.35;1.20;;;;;;;10.57;45.22;100265.31;5068352;28;20471;-68
2020/12/24 01:49:21;;;;;;;4.13;1.33;;;;;;;10.57;45.27;100262.56;5072938;28;20044;-68
2020/12/24 01:51:52;;;;;;;3.35;1.20;;;;;;;10.57;44.64;100268.03;5073038;28;20059;-68
2020/12/24 01:54:22;;;;;;;4.73;1.23;;;;;;;10.54;45.36;100268.31;5070792;28;20392;-67
2020/12/24 01:56:51;;;;;;;5.15;1.20;;;;;;;10.53;44.84;100266.63;5074339;28;20098;-68
2020/12/24 01:59:23;;;;;;;6.20;1.30;;;;;;;10.52;45.23;100264.88;5075173;28;20040;-67
2020/12/24 02:01:51;;;;;;;3.50;1.05;;;;;;;10.53;44.67;100272.09;5075284;28;20032;-67
2020/12/24 02:04:19;;;;;;;3.97;1.35;;;;;;;10.52;44.86;100259.41;5073121;28;20132;-67
2020/12/24 02:06:50;;;;;;;4.35;1.20;;;;;;;10.53;44.51;100266.63;5072703;28;20040;-67
2020/12/24 02:09:17;;;;;;;6.40;1.10;;;;;;;10.51;44.86;100263.16;5068497;28;20033;-67
2020/12/24 02:11:45;;;;;;;3.17;0.90;;;;;;;10.50;44.85;100266.91;5073125;28;20102;-67
2020/12/24 02:14:13;;;;;;;5.05;1.02;;;;;;;10.49;44.70;100271.50;5071425;28;20060;-67
2020/12/24 02:16:40;;;;;;;2.90;1.08;;;;;;;10.49;44.96;100263.31;5068340;28;20045;-67
2020/12/24 02:19:07;;;;;;;2.65;1.15;;;;;;;10.49;45.03;100274.25;5064150;28;20511;-67
2020/12/24 02:21:36;;;;;;;7.28;1.40;;;;;;;10.49;44.63;100267.91;5073785;28;20037;-67
2020/12/24 02:24:03;;;;;;;3.15;0.82;;;;;;;10.49;44.62;100266.03;5072236;28;20517;-67
2020/12/24 02:26:31;;;;;;;4.28;0.90;;;;;;;10.48;44.71;100272.50;5071638;28;20044;-67
2020/12/24 02:28:59;;;;;;;4.13;1.15;;;;;;;10.48;44.54;100267.03;5036125;28;20052;-67
2020/12/24 02:31:26;;;;;;;5.22;1.17;;;;;;;10.47;44.44;100262.56;5072680;28;20043;-67
2020/12/24 02:33:54;;;;;;;4.45;1.30;;;;;;;10.46;44.31;100254.50;5072482;28;20434;-67
2020/12/24 02:36:21;;;;;;;3.28;1.08;;;;;;;10.46;44.37;100251.78;5070372;28;20094;-67
2020/12/24 02:38:49;;;;;;;5.22;1.05;;;;;;;10.46;44.15;100246.31;5072794;28;20468;-67
2020/12/24 02:41:16;;;;;;;4.20;1.10;;;;;;;10.44;44.20;100246.50;5073038;28;20043;-67
2020/12/24 02:43:45;;;;;;;4.22;1.08;;;;;;;10.44;44.24;100245.63;5069953;28;20051;-67
2020/12/24 02:46:13;;;;;;;5.25;1.15;;;;;;;10.40;44.18;100247.78;5071963;28;20051;-68
2020/12/24 02:48:40;;;;;;;4.18;0.98;;;;;;;10.42;44.33;100250.38;5068151;28;20036;-68
2020/12/24 02:51:08;;;;;;;3.80;1.00;;;;;;;10.40;43.84;100245.03;5065877;28;20140;-68
2020/12/24 02:53:36;;;;;;;4.00;0.90;;;;;;;10.38;44.07;100249.78;5071196;28;20118;-67
2020/12/24 02:56:05;;;;;;;3.38;1.00;;;;;;;10.41;44.27;100252.25;5067131;28;20094;-68
2020/12/24 02:58:32;;;;;;;3.28;0.90;;;;;;;10.39;44.10;100247.91;5070117;28;20051;-68
2020/12/24 03:01:00;;;;;;;3.67;1.00;;;;;;;10.39;44.09;100251.50;5063955;28;20040;-68
2020/12/24 03:03:28;;;;;;;5.10;1.17;;;;;;;10.39;44.07;100254.25;5071990;28;20039;-68
2020/12/24 03:05:55;;;;;;;3.78;0.95;;;;;;;10.38;44.21;100255.25;5069750;28;20037;-68
2020/12/24 03:08:22;;;;;;;2.92;0.80;;;;;;;10.38;43.74;100262.59;5072521;28;20045;-68
2020/12/24 03:10:50;;;;;;;2.13;0.82;;;;;;;10.39;44.02;100256.13;5068316;28;20060;-67
2020/12/24 03:13:18;;;;;;;3.80;0.80;;;;;;;10.38;43.80;100249.78;5065091;28;20048;-68
2020/12/24 03:15:45;;;;;;;2.65;1.02;;;;;;;10.36;43.75;100245.50;5068556;28;20033;-68
2020/12/24 03:18:14;;;;;;;6.05;1.00;;;;;;;10.37;43.61;100247.22;5071855;28;20454;-67
2020/12/24 03:20:42;;;;;;;2.78;1.00;;;;;;;10.34;43.88;100245.63;5068319;28;20115;-68
2020/12/24 03:23:09;;;;;;;2.58;0.77;;;;;;;10.32;43.78;100244.03;5071797;28;20127;-68
2020/12/24 03:25:37;;;;;;;3.72;1.30;;;;;;;10.32;43.60;100242.16;5068995;28;20041;-68
2020/12/24 03:28:05;;;;;;;4.95;0.90;;;;;;;10.32;43.75;100247.63;5071089;28;20041;-68
2020/12/24 03:30:34;;;;;;;2.42;0.98;;;;;;;10.33;43.83;100251.25;5067401;28;20090;-68
2020/12/24 03:33:01;;;;;;;2.28;0.68;;;;;;;10.31;44.18;100248.66;5069470;28;20044;-68
2020/12/24 03:35:29;;;;;;;3.60;0.75;;;;;;;10.31;44.08;100242.31;5069976;28;20064;-68
2020/12/24 03:37:56;;;;;;;3.08;0.82;;;;;;;10.33;43.87;100229.38;5072292;28;20074;-68
2020/12/24 03:40:23;;;;;;;3.35;1.20;;;;;;;10.30;44.12;100226.91;5070644;28;20159;-67
2020/12/24 03:42:50;;;;;;;3.40;1.00;;;;;;;10.30;44.09;100225.03;5071300;28;20043;-68
2020/12/24 03:45:18;;;;;;;2.50;0.63;;;;;;;10.31;43.99;100234.13;5071462;28;20051;-68
2020/12/24 03:47:46;;;;;;;2.88;1.00;;;;;;;10.32;44.07;100233.09;5072299;28;20067;-68
2020/12/24 03:50:13;;;;;;;5.05;1.35;;;;;;;10.32;44.32;100230.38;5070626;28;20048;-68
2020/12/24 03:52:40;;;;;;;2.58;0.77;;;;;;;10.31;44.11;100226.78;5067515;28;20419;-68
2020/12/24 03:55:08;;;;;;;5.07;1.33;;;;;;;10.32;44.19;100225.78;5071564;28;20044;-67
2020/12/24 03:57:35;;;;;;;2.47;0.85;;;;;;;10.32;44.21;100233.97;5070979;28;20041;-67
2020/12/24 04:00:04;;;;;;;2.70;1.00;;;;;;;10.33;44.29;100234.84;5071479;28;20048;-67
2020/12/24 04:02:32;;;;;;;4.13;0.95;;;;;;;10.32;44.00;100230.38;5069450;28;20033;-67
2020/12/24 04:05:00;;;;;;;3.95;1.00;;;;;;;10.33;44.35;100226.63;5072266;28;20573;-67
2020/12/24 04:07:28;;;;;;;3.33;0.80;;;;;;;10.32;44.34;100224.91;5071883;28;20067;-67
2020/12/24 04:09:55;;;;;;;4.30;0.90;;;;;;;10.32;44.24;100225.78;5072911;28;20040;-67
2020/12/24 04:12:22;;;;;;;3.92;1.00;;;;;;;10.31;44.22;100224.03;5080148;28;20090;-67
2020/12/24 04:14:49;;;;;;;3.80;1.08;;;;;;;10.31;44.61;100229.50;5071740;28;20037;-68
2020/12/24 04:17:17;;;;;;;2.38;0.85;;;;;;;10.31;44.68;100231.38;5070575;28;20040;-67
2020/12/24 04:19:44;;;;;;;2.92;0.93;;;;;;;10.32;44.47;100233.97;5070329;28;20036;-68
2020/12/24 04:22:13;;;;;;;2.72;0.90;;;;;;;10.33;44.76;100232.09;5065265;28;20043;-67
2020/12/24 04:24:41;;;;;;;5.07;1.05;;;;;;;10.31;44.71;100229.50;5071356;28;20048;-68
2020/12/24 04:27:09;;;;;;;5.60;1.25;;;;;;;10.31;44.86;100232.25;5070280;28;20040;-67
2020/12/24 04:29:37;;;;;;;3.53;0.98;;;;;;;10.32;44.74;100230.38;5069618;28;20101;-67
2020/12/24 04:32:04;;;;;;;2.75;0.82;;;;;;;10.32;44.68;100231.25;5066692;28;20036;-67
2020/12/24 04:34:32;;;;;;;2.13;0.85;;;;;;;10.30;45.05;100230.50;5069917;28;20052;-68
2020/12/24 04:36:59;;;;;;;2.88;0.80;;;;;;;10.31;45.08;100220.44;5086333;28;20400;-67
2020/12/24 04:39:28;;;;;;;5.47;1.23;;;;;;;10.33;44.99;100226.63;5071734;28;20068;-68
2020/12/24 04:41:58;;;;;;;3.05;0.70;;;;;;;10.32;45.35;100225.78;5072788;28;20040;-67
2020/12/24 04:44:26;;;;;;;3.08;1.05;;;;;;;10.32;45.27;100233.09;5070923;28;20045;-68
2020/12/24 04:46:55;;;;;;;4.43;1.23;;;;;;;10.33;44.94;100223.91;5071453;28;20036;-68
2020/12/24 04:49:24;;;;;;;3.67;0.80;;;;;;;10.34;45.20;100229.22;5070591;28;20468;-68
2020/12/24 04:51:52;;;;;;;3.05;0.98;;;;;;;10.32;45.35;100230.38;5060583;28;20508;-68
2020/12/24 04:54:20;;;;;;;3.72;1.05;;;;;;;10.33;45.12;100234.84;5070484;28;20044;-68
2020/12/24 04:56:48;;;;;;;4.03;1.10;;;;;;;10.34;45.09;100229.22;5070303;28;20040;-68
2020/12/24 04:59:18;;;;;;;2.80;1.00;;;;;;;10.36;45.05;100229.09;5070689;28;20047;-68
2020/12/24 05:01:50;;;;;;;3.58;0.88;;;;;;;10.37;45.40;100237.13;5069179;28;20035;-67
2020/12/24 05:04:18;;;;;;;3.17;0.90;;;;;;;10.36;45.39;100229.94;5070472;28;20128;-68
2020/12/24 05:06:45;;;;;;;5.22;1.20;;;;;;;10.37;45.78;100233.56;5070848;28;20365;-68
2020/12/24 05:09:13;;;;;;;2.10;0.80;;;;;;;10.37;45.47;100228.91;5083230;28;20365;-69
2020/12/24 05:11:44;;;;;;;3.20;0.80;;;;;;;10.40;45.51;100230.50;5072360;28;20032;-71
2020/12/24 05:14:17;;;;;;;4.65;0.90;;;;;;;10.40;45.49;100216.84;5071724;28;20059;-70
2020/12/24 05:16:57;;;;;;;4.15;0.90;;;;;;;10.39;45.74;100220.56;5071425;28;20095;-70
2020/12/24 05:19:24;;;;;;;3.40;1.00;;;;;;;10.37;45.88;100217.97;5068121;28;20048;-70
2020/12/24 05:21:52;;;;;;;4.22;0.98;;;;;;;10.37;45.93;100217.97;5067726;28;20114;-69
2020/12/24 05:24:24;;;;;;;3.00;0.90;;;;;;;10.40;46.00;100220.44;5070141;28;20063;-69
2020/12/24 05:26:53;;;;;;;2.92;1.15;;;;;;;10.37;46.22;100219.88;5071227;28;20479;-69
2020/12/24 05:29:21;;;;;;;6.65;1.67;;;;;;;10.39;45.94;100217.84;5069087;28;20103;-69
2020/12/24 05:31:52;;;;;;;4.80;1.80;;;;;;;10.40;45.31;100216.84;5068997;28;20037;-69
2020/12/24 05:34:21;;;;;;;3.88;1.40;;;;;;;10.36;45.68;100212.69;5070357;28;20064;-69
2020/12/24 05:36:48;;;;;;;4.13;1.17;;;;;;;10.33;45.75;100211.09;5070598;28;20128;-69
2020/12/24 05:39:16;;;;;;;5.10;1.40;;;;;;;10.32;45.65;100212.09;5074626;28;20036;-68
2020/12/24 05:41:45;;;;;;;3.53;0.95;;;;;;;10.30;45.62;100210.50;5075888;28;20024;-69
2020/12/24 05:44:13;;;;;;;2.20;0.90;;;;;;;10.29;45.43;100204.19;5070845;28;20037;-68
2020/12/24 05:46:44;;;;;;;3.67;1.63;;;;;;;10.27;45.72;100211.69;5088369;28;20052;-68
2020/12/24 05:49:14;;;;;;;4.88;0.98;;;;;;;10.24;45.60;100206.50;5071182;28;20110;-69
2020/12/24 05:51:57;;;;;;;4.93;1.08;;;;;;;10.21;45.65;100208.66;5070777;28;20032;-68
2020/12/24 05:54:26;;;;;;;2.30;0.70;;;;;;;10.21;45.97;100212.25;5072605;28;20049;-69
2020/12/24 05:56:54;;;;;;;2.35;0.85;;;;;;;10.19;45.91;100211.56;5067627;28;20039;-68
2020/12/24 05:59:24;;;;;;;3.03;0.90;;;;;;;10.18;46.10;100212.56;5072445;28;20041;-68
2020/12/24 06:02:04;;;;;;;2.13;0.90;;;;;;;10.18;46.05;100214.44;5074145;28;20044;-68
2020/12/24 06:04:49;;;;;;;3.05;0.95;;;;;;;10.15;45.98;100216.44;5070918;28;20036;-68
2020/12/24 06:07:30;;;;;;;2.05;0.70;;;;;;;10.15;46.08;100204.63;5073787;28;20684;-68
2020/12/24 06:10:09;;;;;;;5.75;1.20;;;;;;;10.11;46.02;100212.28;5065492;28;20379;-69
2020/12/24 06:12:51;;;;;;;2.47;0.70;;;;;;;10.12;46.10;100216.72;5074177;28;20037;-69
2020/12/24 06:15:19;;;;;;;3.13;0.80;;;;;;;10.08;46.25;100218.03;5074060;28;20044;-68
2020/12/24 06:17:50;;;;;;;1.35;0.68;;;;;;;10.12;45.90;100218.63;5063689;28;20041;-68
2020/12/24 06:20:19;;;;;;;2.92;0.73;;;;;;;10.10;46.19;100216.03;5068360;28;20040;-69
2020/12/24 06:22:48;;;;;;;4.00;0.98;;;;;;;10.08;45.99;100218.03;5066755;28;20036;-68
2020/12/24 06:25:15;;;;;;;2.72;1.30;;;;;;;10.07;45.91;100209.97;5068159;28;20056;-68
2020/12/24 06:27:45;;;;;;;2.15;0.60;;;;;;;10.06;46.00;100217.31;5079999;28;20210;-68
2020/12/24 06:30:15;;;;;;;2.70;0.93;;;;;;;10.04;46.26;100222.03;5061673;28;20110;-68
2020/12/24 06:32:48;;;;;;;2.05;0.70;;;;;;;10.04;45.91;100222.03;5072831;28;20082;-68
2020/12/24 06:35:34;;;;;;;4.50;1.00;;;;;;;10.00;45.81;100234.28;5073356;28;20111;-68
2020/12/24 06:38:02;;;;;;;2.80;0.70;;;;;;;9.98;45.99;100221.75;5072196;28;20052;-69
2020/12/24 06:40:31;;;;;;;2.17;0.70;;;;;;;9.98;46.21;100232.69;5073460;28;20411;-68
2020/12/24 06:42:58;;;;;;;2.45;0.80;;;;;;;9.95;46.15;100239.34;5088959;28;20148;-68
2020/12/24 06:45:37;;;;;;;2.22;0.63;;;;;;;9.96;45.86;100238.28;5071072;28;20043;-68
2020/12/24 06:48:22;;;;;;;3.03;0.80;;;;;;;9.95;45.87;100242.06;5070797;28;20127;-69
2020/12/24 06:50:51;;;;;;;1.67;0.60;;;;;;;9.92;46.21;100234.16;5071655;28;20115;-68
2020/12/24 06:53:29;;;;;;;3.53;0.60;;;;;;;9.93;46.02;100235.88;5073669;28;20040;-69
2020/12/24 06:56:18;;;;;;;2.47;0.50;;;;;;;9.91;46.12;100242.47;5070590;28;20128;-69
2020/12/24 06:58:46;;;;;;;2.17;0.65;;;;;;;9.90;46.29;100246.22;5073009;28;20045;-68
2020/12/24 07:01:15;;;;;;;2.20;1.00;;;;;;;9.92;46.42;100241.47;5068270;28;20476;-68
2020/12/24 07:03:44;;;;;;;2.38;0.75;;;;;;;9.91;46.69;100248.81;5072729;28;20476;-68
2020/12/24 07:06:11;;;;;;;0.65;0.43;;;;;;;9.91;46.10;100254.28;5065865;28;20053;-68
2020/12/24 07:08:45;;;;;;;2.20;0.70;;;;;;;9.95;46.38;100258.47;5073547;28;20052;-68
2020/12/24 07:11:42;;;;;;;1.80;0.52;;;;;;;9.92;46.21;100266.94;5061772;28;20032;-68
2020/12/24 07:14:24;;;;;;;3.20;0.68;;;;;;;9.94;46.33;100272.25;5076586;28;20052;-68
2020/12/24 07:16:52;;;;;;;1.75;0.52;;;;;;;9.91;46.26;100278.00;5072332;28;20041;-68
2020/12/24 07:19:21;;;;;;;2.58;0.85;;;;;;;9.94;46.10;100275.00;5071355;28;20037;-68
2020/12/24 07:21:50;;;;;;;1.25;0.50;;;;;;;9.92;46.01;100275.13;5069129;28;20059;-68
2020/12/24 07:24:26;;;;;;;3.38;0.85;;;;;;;9.94;45.98;100272.25;5096147;28;20090;-68
2020/12/24 07:26:55;;;;;;;2.50;0.80;;;;;;;9.91;46.39;100272.53;5072088;28;20043;-68
2020/12/24 07:29:24;;;;;;;3.72;0.60;;;;;;;9.90;46.30;100279.00;5066327;28;20045;-68
2020/12/24 07:31:51;;;;;;;2.97;0.63;;;;;;;9.89;46.19;100285.47;5071936;28;20093;-68
2020/12/24 07:34:23;;;;;;;2.33;0.50;;;;;;;9.91;46.31;100292.53;5072327;28;20455;-69
2020/12/24 07:36:51;;;;;;;2.53;0.73;;;;;;;9.87;46.21;100290.22;5071924;28;20452;-68
2020/12/24 07:39:18;;;;;;;2.38;0.70;;;;;;;9.89;46.42;100305.44;5068775;28;20409;-68
2020/12/24 07:41:45;;;;;;;1.70;1.00;;;;;;;9.89;46.57;100299.97;5072291;28;20505;-68
2020/12/24 07:44:16;;;;;;;3.00;0.60;;;;;;;9.90;46.62;100298.97;5071387;28;20051;-69
2020/12/24 07:46:44;;;;;;;1.33;0.50;;;;;;;9.89;46.32;100302.72;5067905;28;20072;-68
2020/12/24 07:49:12;;;;;;;5.05;0.75;;;;;;;9.89;46.33;100304.59;5069952;28;20044;-68
2020/12/24 07:51:40;;;;;;;1.83;0.70;;;;;;;9.89;46.30;100308.19;5070740;28;20115;-68
2020/12/24 07:54:09;;;;;;;1.95;0.70;;;;;;;9.88;46.57;100301.00;5068196;28;20094;-69
2020/12/24 07:56:37;;;;;;;2.03;0.65;;;;;;;9.88;46.34;100306.44;5069430;28;20040;-68
2020/12/24 07:59:06;;;;;;;1.00;0.52;;;;;;;9.88;46.42;100309.19;5068408;28;20129;-68
2020/12/24 08:01:33;;;;;;;1.55;0.50;;;;;;;9.88;46.59;100309.19;5069169;28;20057;-68
2020/12/24 08:04:01;;;;;;;2.47;0.63;;;;;;;9.88;46.43;100309.19;5071977;28;20048;-68
2020/12/24 08:06:29;;;;;;;1.83;0.68;;;;;;;9.88;46.60;100314.66;5071387;28;20047;-68
2020/12/24 08:09:12;;;;;;;2.10;1.00;;;;;;;9.91;46.33;100308.03;5066183;28;20041;-68
2020/12/24 08:11:39;;;;;;;1.33;0.70;;;;;;;9.84;46.63;100315.94;5076663;28;20051;-68
2020/12/24 08:14:08;;;;;;;1.52;0.65;;;;;;;9.87;46.58;100317.53;5070315;28;20040;-68
2020/12/24 08:16:40;;;;;;;1.27;0.50;;;;;;;9.87;46.43;100318.41;5069103;28;20503;-69
2020/12/24 08:19:14;;;;;;;1.77;0.55;;;;;;;9.86;46.68;100322.16;5070237;28;20123;-68
2020/12/24 08:21:56;;;;;;;2.78;0.60;;;;;;;9.88;46.46;100327.44;5070643;28;20549;-69
2020/12/24 08:24:25;;;;;;;2.92;0.70;;;;;;;9.85;46.93;100334.06;5067711;28;20423;-68
2020/12/24 08:26:53;;;;;;;1.45;0.60;;;;;;;9.84;46.91;100326.00;5072506;28;20071;-68
2020/12/24 08:29:21;;;;;;;1.98;0.80;;;;;;;9.83;46.62;100325.16;5068195;28;20032;-68
2020/12/24 08:31:48;;;;;;;0.63;0.38;;;;;;;9.84;46.69;100339.66;5072459;28;20087;-69
2020/12/24 08:34:15;;;;;;;1.65;1.02;;;;;;;9.83;46.78;100360.66;5072436;28;20048;-69
2020/12/24 08:36:45;;;;;;;1.40;0.98;;;;;;;9.84;46.87;100367.00;5066334;28;20036;-69
2020/12/24 08:39:14;;;;;;;1.13;0.77;;;;;;;9.81;46.64;100386.38;5070676;28;20048;-69
2020/12/24 08:41:44;;;;;;;1.75;0.77;;;;;;;9.79;46.38;100385.69;5069780;28;20040;-70
2020/12/24 08:44:18;;;;;;;1.33;0.80;;;;;;;9.77;46.11;100394.00;5070324;28;20045;-69
2020/12/24 08:46:45;;;;;;;1.25;0.70;;;;;;;9.69;45.65;100405.63;5070598;28;20047;-70
2020/12/24 08:49:23;;;;;;;0.98;0.70;;;;;;;9.68;45.93;100405.72;5069782;28;20127;-70
2020/12/24 08:51:50;;;;;;;1.27;0.90;;;;;;;9.57;46.04;100423.06;5068827;28;20083;-70
2020/12/24 08:54:22;;;;;;;1.63;1.10;;;;;;;9.51;45.98;100426.34;5065534;28;20123;-70
2020/12/24 08:56:50;;;;;;;1.52;1.05;;;;;;;9.46;45.52;100436.81;5069441;28;20488;-70
2020/12/24 08:59:17;;;;;;;1.45;0.95;;;;;;;9.39;45.74;100432.88;5068214;28;20071;-69
2020/12/24 09:01:44;;;;;;;1.35;1.10;;;;;;;9.35;45.60;100439.63;5071675;28;20032;-69
2020/12/24 09:04:13;;;;;;;1.90;1.20;;;;;;;9.30;45.73;100445.47;5068588;28;20106;-69
2020/12/24 09:06:42;;;;;;;1.73;1.10;;;;;;;9.22;45.62;100455.31;5071851;28;20055;-69
2020/12/24 09:09:19;;;;;;;1.42;1.15;;;;;;;9.14;44.62;100455.13;5071045;28;20076;-68
2020/12/24 09:11:47;;;;;;;2.65;1.20;;;;;;;9.04;45.39;100468.72;5058570;28;20068;-69
2020/12/24 09:14:20;;;;;;;1.98;1.20;;;;;;;8.99;44.78;100481.88;5072250;28;20041;-69
2020/12/24 09:16:55;;;;;;;1.23;1.10;;;;;;;8.86;44.60;100482.06;5073677;28;20036;-69
2020/12/24 09:19:23;;;;;;;1.38;0.95;;;;;;;8.78;45.24;100483.72;5069193;28;20048;-69
2020/12/24 09:21:52;;;;;;;0.80;0.80;;;;;;;8.71;45.14;100498.88;5074321;28;21905;-69
2020/12/24 09:24:19;;;;;;;1.08;0.90;;;;;;;8.60;45.19;100510.66;5074659;28;20515;-69
2020/12/24 09:26:48;;;;;;;1.17;0.93;;;;;;;8.52;45.10;100511.31;5073857;28;20044;-69
2020/12/24 09:29:16;;;;;;;0.90;0.80;;;;;;;8.47;45.39;100516.28;5071546;28;20048;-69
2020/12/24 09:31:57;;;;;;;0.82;0.80;;;;;;;8.40;45.07;100528.63;5071763;28;20044;-69
2020/12/24 09:34:28;;;;;;;1.40;0.85;;;;;;;8.32;45.49;100530.25;5074511;28;20128;-69
2020/12/24 09:36:57;;;;;;;0.60;0.60;;;;;;;8.21;45.50;100537.47;5087943;28;20055;-69
2020/12/24 09:39:24;;;;;;;0.60;0.60;;;;;;;8.15;45.43;100546.13;5055391;28;20135;-69
2020/12/24 09:41:51;;;;;;;0.65;0.60;;;;;;;8.12;45.75;100548.25;5073401;28;20127;-69
2020/12/24 09:44:18;;;;;;;1.23;0.60;;;;;;;8.09;45.57;100553.94;5050493;28;20119;-69
2020/12/24 09:46:48;;;;;;;0.75;0.70;;;;;;;8.00;45.91;100554.69;5073183;28;20467;-69
2020/12/24 09:49:17;;;;;;;0.90;0.70;;;;;;;8.00;45.69;100569.16;5071810;28;20521;-68
2020/12/24 09:51:44;;;;;;;0.98;0.50;;;;;;;7.97;45.76;100576.72;5072798;28;20140;-69
2020/12/24 09:54:29;;;;;;;0.63;0.50;;;;;;;7.92;46.02;100578.94;5072634;28;20426;-69
2020/12/24 09:56:57;;;;;;;0.75;0.68;;;;;;;7.90;45.81;100581.78;5067625;28;20426;-69
2020/12/24 09:59:25;;;;;;;0.68;0.60;;;;;;;7.82;45.80;100576.06;5072631;28;20040;-68
2020/12/24 10:01:54;;;;;;;2.13;0.75;;;;;;;7.81;45.98;100583.41;5071092;28;20044;-69
2020/12/24 10:04:22;;;;;;;0.77;0.70;;;;;;;7.81;45.72;100593.44;5088201;28;20037;-69
2020/12/24 10:06:49;;;;;;;0.75;0.50;;;;;;;7.76;45.84;100601.06;5049158;28;20581;-68
2020/12/24 10:09:17;;;;;;;0.40;0.40;;;;;;;7.76;46.03;100609.25;5072423;28;20106;-68
2020/12/24 10:11:46;;;;;;;0.80;0.50;;;;;;;7.76;46.03;100620.13;5061643;28;20447;-68
2020/12/24 10:14:14;;;;;;;0.82;0.50;;;;;;;7.72;46.05;100618.66;5053662;28;20094;-69
2020/12/24 10:16:43;;;;;;;0.50;0.50;;;;;;;7.71;46.16;100628.69;5065789;28;20104;-69
2020/12/24 10:19:10;;;;;;;0.75;0.40;;;;;;;7.72;46.09;100632.25;5071654;28;20048;-69
2020/12/24 10:21:40;;;;;;;0.47;0.40;;;;;;;7.74;46.14;100657.50;5051944;28;20102;-69
2020/12/24 10:24:16;;;;;;;0.68;0.40;;;;;;;7.73;46.40;100653.06;5062609;28;20079;-69
2020/12/24 10:26:43;;;;;;;0.55;0.43;;;;;;;7.74;46.32;100661.09;5073572;28;20032;-69
2020/12/24 10:29:11;;;;;;;0.73;0.50;;;;;;;7.75;46.41;100661.97;5073412;28;20055;-69
2020/12/24 10:31:44;;;;;;;0.57;0.57;;;;;;;7.80;46.19;100665.22;5071119;28;20037;-69
2020/12/24 10:34:11;;;;;;;0.60;0.57;;;;;;;7.77;46.67;100660.00;5067517;28;20211;-69
2020/12/24 10:36:40;;;;;;;0.50;0.50;;;;;;;7.82;46.61;100666.81;5071493;28;20040;-69
2020/12/24 10:39:09;;;;;;;0.47;0.47;;;;;;;7.84;46.89;100659.38;5077893;28;20044;-68
2020/12/24 10:41:39;;;;;;;0.75;0.65;;;;;;;7.87;46.52;100658.28;5060304;28;20501;-69
2020/12/24 10:44:07;;;;;;;1.33;0.85;;;;;;;7.87;46.55;100667.34;5066449;28;20036;-69
2020/12/24 10:47:00;;;;;;;1.35;0.80;;;;;;;7.89;46.10;100669.94;5053043;28;20139;-68
2020/12/24 10:49:28;;;;;;;0.80;0.80;;;;;;;7.89;46.68;100667.22;5074785;28;20037;-69
2020/12/24 10:51:56;;;;;;;2.22;0.90;;;;;;;7.97;46.57;100667.47;5065523;28;20072;-69
2020/12/24 10:54:24;;;;;;;1.25;0.88;;;;;;;8.00;47.01;100669.94;5070384;28;20106;-68
2020/12/24 10:56:52;;;;;;;1.42;1.00;;;;;;;8.03;46.87;100679.75;5051713;28;20411;-69
2020/12/24 10:59:20;;;;;;;1.30;0.85;;;;;;;8.08;46.74;100682.97;5068026;28;20120;-69
2020/12/24 11:01:48;;;;;;;1.10;0.80;;;;;;;8.11;46.58;100688.19;5069485;28;20036;-69
2020/12/24 11:04:16;;;;;;;1.17;0.80;;;;;;;8.14;46.63;100693.41;5070216;28;20032;-69
2020/12/24 11:06:45;;;;;;;1.05;0.70;;;;;;;8.17;46.57;100694.00;5068628;28;20040;-68
2020/12/24 11:09:14;;;;;;;1.80;1.02;;;;;;;8.20;46.37;100695.63;5070041;28;20040;-71
2020/12/24 11:11:43;;;;;;;1.92;1.10;;;;;;;8.22;47.03;100691.81;5072777;28;20114;-69
2020/12/24 11:14:11;;;;;;;2.45;1.30;;;;;;;8.26;46.79;100695.13;5075089;28;20476;-69
2020/12/24 11:16:38;;;;;;;1.92;1.50;;;;;;;8.30;47.05;100698.50;5071778;28;20033;-70
2020/12/24 11:19:06;;;;;;;2.90;1.70;;;;;;;8.33;46.95;100696.38;5055586;28;20051;-70
2020/12/24 11:21:35;;;;;;;3.30;2.35;;;;;;;8.39;46.97;100698.66;5065435;28;20032;-68
2020/12/24 11:24:06;;;;;;;3.80;2.67;;;;;;;8.44;46.89;100715.53;5070342;28;20052;-69
2020/12/24 11:26:35;;;;;;;4.10;2.45;;;;;;;8.47;46.65;100718.00;5067809;28;20040;-69
2020/12/24 11:29:06;;;;;;;3.40;2.30;;;;;;;8.52;46.35;100723.09;5074767;28;20064;-68
2020/12/24 11:31:35;;;;;;;3.72;2.30;;;;;;;8.55;46.13;100731.03;5071178;28;20040;-68
2020/12/24 11:34:03;;;;;;;3.10;2.00;;;;;;;8.58;46.36;100730.75;5053619;28;20032;-69
2020/12/24 11:36:32;;;;;;;2.65;1.52;;;;;;;8.59;46.14;100727.06;5070373;28;20037;-69
2020/12/24 11:38:59;;;;;;;3.00;1.67;;;;;;;8.61;46.22;100734.13;5072292;28;20400;-69